createdAt,value
2023-05-22T00:00:04.103Z,478.00
2023-05-22T00:01:04.137Z,477.00
2023-05-22T00:02:04.176Z,479.00
2023-05-22T00:03:04.293Z,480.00
2023-05-22T00:04:04.208Z,479.00
2023-05-22T00:05:04.260Z,478.00
2023-05-22T00:06:04.219Z,475.00
2023-05-22T00:07:04.235Z,475.00
2023-05-22T00:08:04.250Z,474.00
2023-05-22T00:09:04.273Z,475.00
2023-05-22T00:10:04.300Z,476.00
2023-05-22T00:11:04.333Z,477.00
2023-05-22T00:12:04.334Z,477.00
2023-05-22T00:13:04.352Z,474.00
2023-05-22T00:14:04.433Z,473.00
2023-05-22T00:15:04.425Z,475.00
2023-05-22T00:16:04.437Z,477.00
2023-05-22T00:17:04.442Z,477.00
2023-05-22T00:18:04.457Z,479.00
2023-05-22T00:19:04.527Z,482.00
2023-05-22T00:20:05.503Z,484.00
2023-05-22T00:21:04.539Z,487.00
2023-05-22T00:22:04.498Z,486.00
2023-05-22T00:23:04.511Z,484.00
2023-05-22T00:24:04.534Z,484.00
2023-05-22T00:25:04.532Z,486.00
2023-05-22T00:26:04.560Z,485.00
2023-05-22T00:27:04.824Z,483.00
2023-05-22T00:28:04.639Z,483.00
2023-05-22T00:29:04.664Z,480.00
2023-05-22T00:30:04.679Z,480.00
2023-05-22T00:31:04.716Z,480.00
2023-05-22T00:32:04.762Z,478.00
2023-05-22T00:33:04.823Z,477.00
2023-05-22T00:34:04.864Z,478.00
2023-05-22T00:35:04.923Z,477.00
2023-05-22T00:36:04.880Z,475.00
2023-05-22T00:37:04.995Z,472.00
2023-05-22T00:38:04.927Z,474.00
2023-05-22T00:39:04.949Z,475.00
2023-05-22T00:40:05.015Z,478.00
2023-05-22T00:41:05.005Z,476.00
2023-05-22T00:42:04.997Z,477.00
2023-05-22T00:43:05.029Z,477.00
2023-05-22T00:44:05.033Z,477.00
2023-05-22T00:45:05.057Z,479.00
2023-05-22T00:46:05.091Z,478.00
2023-05-22T00:47:05.133Z,478.00
2023-05-22T00:48:05.164Z,479.00
2023-05-22T00:49:05.157Z,479.00
2023-05-22T00:50:05.197Z,478.00
2023-05-22T00:51:05.208Z,476.00
2023-05-22T00:52:05.241Z,474.00
2023-05-22T00:53:05.309Z,477.00
2023-05-22T00:54:05.464Z,478.00
2023-05-22T00:55:06.384Z,478.00
2023-05-22T00:56:05.381Z,479.00
2023-05-22T00:57:05.427Z,481.00
2023-05-22T00:58:05.520Z,480.00
2023-05-22T00:59:05.440Z,480.00
2023-05-22T01:00:05.478Z,480.00
2023-05-22T01:01:05.465Z,482.00
2023-05-22T01:02:06.619Z,482.00
2023-05-22T01:03:05.643Z,482.00
2023-05-22T01:04:06.019Z,486.00
2023-05-22T01:05:05.483Z,487.00
2023-05-22T01:06:05.450Z,486.00
2023-05-22T01:07:05.503Z,485.00
2023-05-22T01:08:05.447Z,484.00
2023-05-22T01:09:05.419Z,484.00
2023-05-22T01:10:05.415Z,485.00
2023-05-22T01:11:05.446Z,487.00
2023-05-22T01:12:05.450Z,486.00
2023-05-22T01:13:05.402Z,486.00
2023-05-22T01:14:05.391Z,486.00
2023-05-22T01:15:05.393Z,486.00
2023-05-22T01:16:05.423Z,487.00
2023-05-22T01:17:05.398Z,486.00
2023-05-22T01:18:05.481Z,484.00
2023-05-22T01:19:05.421Z,484.00
2023-05-22T01:20:05.357Z,486.00
2023-05-22T01:21:05.351Z,485.00
2023-05-22T01:22:05.384Z,485.00
2023-05-22T01:23:05.333Z,484.00
2023-05-22T01:24:05.329Z,484.00
2023-05-22T01:25:05.383Z,484.00
2023-05-22T01:26:05.314Z,484.00
2023-05-22T01:27:05.350Z,481.00
2023-05-22T01:28:05.457Z,481.00
2023-05-22T01:29:05.304Z,481.00
2023-05-22T01:30:05.275Z,479.00
2023-05-22T01:31:05.288Z,479.00
2023-05-22T01:32:05.364Z,479.00
2023-05-22T01:33:05.316Z,479.00
2023-05-22T01:34:05.281Z,479.00
2023-05-22T01:35:05.245Z,478.00
2023-05-22T01:36:05.214Z,476.00
2023-05-22T01:37:05.216Z,476.00
2023-05-22T01:38:06.007Z,476.00
2023-05-22T01:39:05.196Z,475.00
2023-05-22T01:40:05.198Z,475.00
2023-05-22T01:41:05.189Z,475.00
2023-05-22T01:42:05.186Z,480.00
2023-05-22T01:43:05.172Z,482.00
2023-05-22T01:44:05.156Z,482.00
2023-05-22T01:45:05.196Z,481.00
2023-05-22T01:46:05.266Z,479.00
2023-05-22T01:47:05.330Z,480.00
2023-05-22T01:48:05.437Z,481.00
2023-05-22T01:49:05.257Z,481.00
2023-05-22T01:50:05.265Z,480.00
2023-05-22T01:51:05.233Z,480.00
2023-05-22T01:52:05.259Z,482.00
2023-05-22T01:53:06.028Z,483.00
2023-05-22T01:54:05.308Z,480.00
2023-05-22T01:55:05.224Z,481.00
2023-05-22T01:56:05.463Z,481.00
2023-05-22T01:57:05.291Z,483.00
2023-05-22T01:58:05.288Z,483.00
2023-05-22T01:59:06.346Z,482.00
2023-05-22T02:00:05.188Z,482.00
2023-05-22T02:01:05.305Z,481.00
2023-05-22T02:02:05.313Z,483.00
2023-05-22T02:03:05.391Z,482.00
2023-05-22T02:04:05.276Z,482.00
2023-05-22T02:05:05.346Z,481.00
2023-05-22T02:06:05.322Z,479.00
2023-05-22T02:07:05.379Z,479.00
2023-05-22T02:08:05.533Z,479.00
2023-05-22T02:09:05.427Z,480.00
2023-05-22T02:10:05.517Z,479.00
2023-05-22T02:11:05.617Z,481.00
2023-05-22T02:12:05.530Z,481.00
2023-05-22T02:13:05.616Z,482.00
2023-05-22T02:14:05.582Z,481.00
2023-05-22T02:15:05.584Z,480.00
2023-05-22T02:16:05.656Z,481.00
2023-05-22T02:17:05.642Z,481.00
2023-05-22T02:18:05.723Z,483.00
2023-05-22T02:19:05.822Z,482.00
2023-05-22T02:20:06.554Z,481.00
2023-05-22T02:21:05.795Z,483.00
2023-05-22T02:22:05.852Z,485.00
2023-05-22T02:23:05.883Z,486.00
2023-05-22T02:24:05.843Z,487.00
2023-05-22T02:25:05.778Z,484.00
2023-05-22T02:26:05.784Z,483.00
2023-05-22T02:27:05.801Z,484.00
2023-05-22T02:28:05.775Z,484.00
2023-05-22T02:29:05.957Z,481.00
2023-05-22T02:30:06.765Z,483.00
2023-05-22T02:31:05.763Z,484.00
2023-05-22T02:32:05.741Z,483.00
2023-05-22T02:33:05.810Z,481.00
2023-05-22T02:34:05.730Z,481.00
2023-05-22T02:35:05.727Z,480.00
2023-05-22T02:36:05.703Z,479.00
2023-05-22T02:37:05.704Z,480.00
2023-05-22T02:38:05.728Z,481.00
2023-05-22T02:39:05.740Z,482.00
2023-05-22T02:40:05.730Z,481.00
2023-05-22T02:41:05.753Z,485.00
2023-05-22T02:42:05.797Z,487.00
2023-05-22T02:43:05.772Z,487.00
2023-05-22T02:44:05.863Z,489.00
2023-05-22T02:45:05.800Z,489.00
2023-05-22T02:46:05.833Z,489.00
2023-05-22T02:47:05.837Z,489.00
2023-05-22T02:48:06.114Z,487.00
2023-05-22T02:49:05.916Z,486.00
2023-05-22T02:50:05.913Z,486.00
2023-05-22T02:51:05.943Z,486.00
2023-05-22T02:52:05.978Z,487.00
2023-05-22T02:53:06.078Z,489.00
2023-05-22T02:54:06.060Z,492.00
2023-05-22T02:55:06.105Z,493.00
2023-05-22T02:56:06.121Z,492.00
2023-05-22T02:57:06.162Z,488.00
2023-05-22T02:58:06.208Z,488.00
2023-05-22T02:59:06.271Z,491.00
2023-05-22T03:00:06.173Z,492.00
2023-05-22T03:01:06.274Z,491.00
2023-05-22T03:02:06.273Z,490.00
2023-05-22T03:03:06.201Z,489.00
2023-05-22T03:04:06.218Z,490.00
2023-05-22T03:05:06.193Z,491.00
2023-05-22T03:06:06.277Z,492.00
2023-05-22T03:07:06.259Z,491.00
2023-05-22T03:08:06.303Z,491.00
2023-05-22T03:09:06.340Z,491.00
2023-05-22T03:10:06.360Z,491.00
2023-05-22T03:11:06.371Z,492.00
2023-05-22T03:12:06.434Z,492.00
2023-05-22T03:13:06.511Z,491.00
2023-05-22T03:14:06.492Z,491.00
2023-05-22T03:15:06.662Z,490.00
2023-05-22T03:16:06.748Z,490.00
2023-05-22T03:17:06.603Z,487.00
2023-05-22T03:18:06.676Z,489.00
2023-05-22T03:19:06.726Z,489.00
2023-05-22T03:20:06.657Z,490.00
2023-05-22T03:21:06.658Z,490.00
2023-05-22T03:22:06.692Z,489.00
2023-05-22T03:23:06.663Z,488.00
2023-05-22T03:24:06.676Z,487.00
2023-05-22T03:25:06.686Z,485.00
2023-05-22T03:26:06.690Z,482.00
2023-05-22T03:27:06.727Z,482.00
2023-05-22T03:28:08.035Z,485.00
2023-05-22T03:29:06.802Z,486.00
2023-05-22T03:30:06.786Z,487.00
2023-05-22T03:31:06.745Z,485.00
2023-05-22T03:32:06.783Z,486.00
2023-05-22T03:33:06.894Z,486.00
2023-05-22T03:34:06.852Z,487.00
2023-05-22T03:35:06.787Z,486.00
2023-05-22T03:36:06.853Z,485.00
2023-05-22T03:37:06.871Z,483.00
2023-05-22T03:38:06.928Z,481.00
2023-05-22T03:39:06.942Z,483.00
2023-05-22T03:40:06.974Z,483.00
2023-05-22T03:41:06.984Z,483.00
2023-05-22T03:42:07.136Z,484.00
2023-05-22T03:43:07.070Z,481.00
2023-05-22T03:44:07.090Z,482.00
2023-05-22T03:45:07.147Z,484.00
2023-05-22T03:46:07.277Z,483.00
2023-05-22T03:47:07.206Z,484.00
2023-05-22T03:48:09.197Z,485.00
2023-05-22T03:49:07.332Z,486.00
2023-05-22T03:50:08.671Z,486.00
2023-05-22T03:51:07.375Z,485.00
2023-05-22T03:52:07.403Z,482.00
2023-05-22T03:53:07.498Z,480.00
2023-05-22T03:54:07.455Z,481.00
2023-05-22T03:55:07.453Z,480.00
2023-05-22T03:56:07.416Z,483.00
2023-05-22T03:57:07.496Z,482.00
2023-05-22T03:58:07.402Z,484.00
2023-05-22T03:59:07.447Z,484.00
2023-05-22T04:00:07.467Z,486.00
2023-05-22T04:01:07.374Z,486.00
2023-05-22T04:02:07.364Z,487.00
2023-05-22T04:03:07.515Z,488.00
2023-05-22T04:04:07.368Z,488.00
2023-05-22T04:05:07.405Z,487.00
2023-05-22T04:06:07.351Z,485.00
2023-05-22T04:07:07.458Z,484.00
2023-05-22T04:08:07.388Z,485.00
2023-05-22T04:09:07.411Z,486.00
2023-05-22T04:10:07.456Z,485.00
2023-05-22T04:11:07.618Z,485.00
2023-05-22T04:12:07.504Z,486.00
2023-05-22T04:13:07.578Z,488.00
2023-05-22T04:14:07.588Z,488.00
2023-05-22T04:15:07.609Z,485.00
2023-05-22T04:16:07.691Z,484.00
2023-05-22T04:17:07.674Z,485.00
2023-05-22T04:18:07.838Z,481.00
2023-05-22T04:19:07.771Z,482.00
2023-05-22T04:20:07.741Z,485.00
2023-05-22T04:21:07.809Z,484.00
2023-05-22T04:22:07.834Z,484.00
2023-05-22T04:23:08.154Z,483.00
2023-05-22T04:24:07.897Z,483.00
2023-05-22T04:25:07.908Z,482.00
2023-05-22T04:26:07.929Z,481.00
2023-05-22T04:27:07.986Z,482.00
2023-05-22T04:28:07.984Z,486.00
2023-05-22T04:29:08.036Z,486.00
2023-05-22T04:30:08.075Z,487.00
2023-05-22T04:31:08.262Z,488.00
2023-05-22T04:32:08.115Z,488.00
2023-05-22T04:33:08.155Z,488.00
2023-05-22T04:34:08.195Z,487.00
2023-05-22T04:35:08.206Z,486.00
2023-05-22T04:36:09.430Z,489.00
2023-05-22T04:37:08.261Z,488.00
2023-05-22T04:38:08.302Z,490.00
2023-05-22T04:39:08.275Z,491.00
2023-05-22T04:40:08.353Z,488.00
2023-05-22T04:41:08.303Z,487.00
2023-05-22T04:42:08.491Z,488.00
2023-05-22T04:43:08.259Z,489.00
2023-05-22T04:44:08.268Z,489.00
2023-05-22T04:45:08.289Z,489.00
2023-05-22T04:46:08.267Z,494.00
2023-05-22T04:47:08.415Z,492.00
2023-05-22T04:48:08.290Z,489.00
2023-05-22T04:49:08.237Z,487.00
2023-05-22T04:50:08.235Z,486.00
2023-05-22T04:51:08.207Z,485.00
2023-05-22T04:52:08.218Z,486.00
2023-05-22T04:53:08.290Z,488.00
2023-05-22T04:54:08.292Z,487.00
2023-05-22T04:55:08.346Z,485.00
2023-05-22T04:56:08.397Z,487.00
2023-05-22T04:57:08.396Z,488.00
2023-05-22T04:58:08.454Z,489.00
2023-05-22T04:59:08.548Z,488.00
2023-05-22T05:00:08.532Z,487.00
2023-05-22T05:01:08.556Z,489.00
2023-05-22T05:02:08.559Z,489.00
2023-05-22T05:03:08.733Z,488.00
2023-05-22T05:04:08.720Z,487.00
2023-05-22T05:05:08.589Z,488.00
2023-05-22T05:06:08.656Z,489.00
2023-05-22T05:07:08.664Z,485.00
2023-05-22T05:08:08.748Z,487.00
2023-05-22T05:09:08.729Z,486.00
2023-05-22T05:10:08.762Z,489.00
2023-05-22T05:11:08.763Z,490.00
2023-05-22T05:12:08.825Z,494.00
2023-05-22T05:13:08.831Z,494.00
2023-05-22T05:14:08.884Z,492.00
2023-05-22T05:15:08.945Z,490.00
2023-05-22T05:16:09.067Z,491.00
2023-05-22T05:17:09.007Z,490.00
2023-05-22T05:18:09.115Z,489.00
2023-05-22T05:19:09.005Z,491.00
2023-05-22T05:20:09.023Z,494.00
2023-05-22T05:21:08.951Z,491.00
2023-05-22T05:22:08.960Z,493.00
2023-05-22T05:23:08.956Z,495.00
2023-05-22T05:24:08.982Z,504.00
2023-05-22T05:25:10.954Z,498.00
2023-05-22T05:26:08.915Z,496.00
2023-05-22T05:27:08.944Z,496.00
2023-05-22T05:28:08.919Z,496.00
2023-05-22T05:29:08.900Z,497.00
2023-05-22T05:30:09.203Z,496.00
2023-05-22T05:31:09.027Z,495.00
2023-05-22T05:32:08.933Z,496.00
2023-05-22T05:33:08.937Z,492.00
2023-05-22T05:34:08.862Z,497.00
2023-05-22T05:35:08.875Z,506.00
2023-05-22T05:36:08.856Z,546.00
2023-05-22T05:37:08.865Z,539.00
2023-05-22T05:38:09.100Z,544.00
2023-05-22T05:39:08.835Z,553.00
2023-05-22T05:40:08.940Z,593.00
2023-05-22T05:41:08.816Z,608.00
2023-05-22T05:42:08.791Z,627.00
2023-05-22T05:43:09.333Z,672.00
2023-05-22T05:44:08.774Z,713.00
2023-05-22T05:45:08.861Z,746.00
2023-05-22T05:46:08.827Z,744.00
2023-05-22T05:47:08.762Z,815.00
2023-05-22T05:48:08.779Z,820.00
2023-05-22T05:49:08.747Z,864.00
2023-05-22T05:50:08.746Z,881.00
2023-05-22T05:51:08.726Z,914.00
2023-05-22T05:52:08.752Z,905.00
2023-05-22T05:53:08.763Z,938.00
2023-05-22T05:54:08.777Z,958.00
2023-05-22T05:55:08.730Z,1018.00
2023-05-22T05:56:08.721Z,1030.00
2023-05-22T05:57:08.673Z,1045.00
2023-05-22T05:58:08.726Z,1063.00
2023-05-22T05:59:08.658Z,1080.00
2023-05-22T06:00:09.152Z,1086.00
2023-05-22T06:01:08.645Z,1093.00
2023-05-22T06:02:08.674Z,1144.00
2023-05-22T06:03:08.703Z,1152.00
2023-05-22T06:04:08.769Z,1175.00
2023-05-22T06:05:08.664Z,1174.00
2023-05-22T06:06:08.644Z,1188.00
2023-05-22T06:07:08.677Z,1212.00
2023-05-22T06:08:08.595Z,1236.00
2023-05-22T06:09:08.594Z,1253.00
2023-05-22T06:10:08.619Z,1276.00
2023-05-22T06:11:08.573Z,1284.00
2023-05-22T06:12:08.599Z,1294.00
2023-05-22T06:13:08.570Z,1319.00
2023-05-22T06:14:08.584Z,1328.00
2023-05-22T06:15:08.576Z,1350.00
2023-05-22T06:16:08.577Z,1368.00
2023-05-22T06:17:08.608Z,1381.00
2023-05-22T06:18:10.366Z,1422.00
2023-05-22T06:19:08.585Z,1436.00
2023-05-22T06:20:08.571Z,1453.00
2023-05-22T06:21:08.515Z,1468.00
2023-05-22T06:22:08.518Z,1485.00
2023-05-22T06:23:08.573Z,1508.00
2023-05-22T06:24:08.547Z,1527.00
2023-05-22T06:25:09.238Z,1552.00
2023-05-22T06:27:28.487Z,1628.00
2023-05-22T06:28:28.118Z,1633.00
2023-05-22T06:29:29.468Z,1643.00
2023-05-22T06:30:43.488Z,1653.00
2023-05-22T06:31:28.689Z,1680.00
2023-05-22T06:32:27.967Z,1689.00
2023-05-22T06:33:43.634Z,1704.00
2023-05-22T06:34:47.069Z,1745.00
2023-05-22T06:35:46.740Z,1760.00
2023-05-22T06:37:00.375Z,1768.00
2023-05-22T06:37:48.738Z,1783.00
2023-05-22T06:38:46.644Z,1794.00
2023-05-22T06:39:46.762Z,1808.00
2023-05-22T06:41:01.416Z,1825.00
2023-05-22T06:41:47.187Z,1837.00
2023-05-22T06:42:47.743Z,1851.00
2023-05-22T06:43:47.126Z,1882.00
2023-05-22T06:44:46.911Z,1902.00
2023-05-22T06:45:47.447Z,1924.00
2023-05-22T06:46:46.718Z,1921.00
2023-05-22T06:47:47.100Z,1952.00
2023-05-22T06:48:46.864Z,1991.00
2023-05-22T06:49:48.993Z,2006.00
2023-05-22T06:50:47.670Z,2021.00
2023-05-22T06:51:46.752Z,2032.00
2023-05-22T06:52:47.829Z,2034.00
2023-05-22T06:53:46.808Z,2053.00
2023-05-22T06:54:46.877Z,2075.00
2023-05-22T06:55:47.095Z,2079.00
2023-05-22T06:56:47.085Z,2073.00
2023-05-22T06:57:47.573Z,2072.00
2023-05-22T06:58:47.149Z,2095.00
2023-05-22T06:59:47.415Z,2101.00
2023-05-22T07:00:47.557Z,2106.00
2023-05-22T07:01:47.404Z,2132.00
2023-05-22T07:02:47.531Z,2152.00
2023-05-22T07:03:49.116Z,2163.00
2023-05-22T07:04:47.544Z,2172.00
2023-05-22T07:05:48.438Z,2190.00
2023-05-22T07:06:49.699Z,2199.00
2023-05-22T07:07:47.679Z,2217.00
2023-05-22T07:08:47.752Z,2238.00
2023-05-22T07:09:47.916Z,2245.00
2023-05-22T07:10:47.834Z,2268.00
2023-05-22T07:11:48.412Z,2274.00
2023-05-22T07:12:48.258Z,2283.00
2023-05-22T07:13:48.064Z,2287.00
2023-05-22T07:14:48.091Z,2297.00
2023-05-22T07:15:48.252Z,2339.00
2023-05-22T07:16:48.686Z,2328.00
2023-05-22T07:17:48.471Z,2322.00
2023-05-22T07:18:48.155Z,2356.00
2023-05-22T07:19:48.335Z,2374.00
2023-05-22T07:20:48.914Z,2401.00
2023-05-22T07:21:48.424Z,2416.00
2023-05-22T07:22:49.480Z,2460.00
2023-05-22T07:23:48.470Z,2498.00
2023-05-22T07:24:52.288Z,2495.00
2023-05-22T07:25:48.544Z,2519.00
2023-05-22T07:26:48.481Z,2589.00
2023-05-22T07:27:58.146Z,2595.00
2023-05-22T07:28:48.428Z,2594.00
2023-05-22T07:29:48.305Z,2595.00
2023-05-22T07:30:48.948Z,2586.00
2023-05-22T07:31:52.308Z,2576.00
2023-05-22T07:32:51.186Z,2565.00
2023-05-22T07:33:48.273Z,2553.00
2023-05-22T07:34:50.018Z,2555.00
2023-05-22T07:35:50.956Z,2555.00
2023-05-22T07:36:48.433Z,2552.00
2023-05-22T07:37:48.483Z,2540.00
2023-05-22T07:38:49.304Z,2534.00
2023-05-22T07:39:48.206Z,2525.00
2023-05-22T07:40:48.469Z,2521.00
2023-05-22T07:41:48.222Z,2514.00
2023-05-22T07:42:48.496Z,2505.00
2023-05-22T07:43:48.551Z,2504.00
2023-05-22T07:44:48.331Z,2499.00
2023-05-22T07:45:48.219Z,2496.00
2023-05-22T07:46:48.224Z,2486.00
2023-05-22T07:47:48.278Z,2478.00
2023-05-22T07:48:48.249Z,2481.00
2023-05-22T07:49:48.154Z,2475.00
2023-05-22T07:50:48.133Z,2461.00
2023-05-22T07:51:48.116Z,2452.00
2023-05-22T07:52:52.022Z,2442.00
2023-05-22T07:53:48.118Z,2411.00
2023-05-22T07:54:48.672Z,2391.00
2023-05-22T07:55:48.213Z,2419.00
2023-05-22T07:56:48.238Z,2448.00
2023-05-22T07:57:48.118Z,2489.00
2023-05-22T07:58:48.156Z,2498.00
2023-05-22T07:59:48.424Z,2531.00
2023-05-22T08:00:48.234Z,2581.00
2023-05-22T08:01:48.053Z,2596.00
2023-05-22T08:02:48.549Z,2608.00
2023-05-22T08:03:48.247Z,2613.00
2023-05-22T08:04:48.131Z,2616.00
2023-05-22T08:05:48.428Z,2618.00
2023-05-22T08:06:48.079Z,2634.00
2023-05-22T08:07:48.382Z,2654.00
2023-05-22T08:08:48.031Z,2657.00
2023-05-22T08:09:48.026Z,2666.00
2023-05-22T08:11:03.021Z,2669.00
2023-05-22T08:11:49.385Z,2670.00
2023-05-22T08:12:48.034Z,2671.00
2023-05-22T08:13:48.022Z,2669.00
2023-05-22T08:14:48.466Z,2673.00
2023-05-22T08:15:48.092Z,2695.00
2023-05-22T08:16:48.347Z,2705.00
2023-05-22T08:17:51.888Z,2711.00
2023-05-22T08:18:55.840Z,2718.00
2023-05-22T08:21:07.740Z,2769.00
2023-05-22T08:22:06.965Z,2748.00
2023-05-22T08:23:07.160Z,2746.00
2023-05-22T08:24:06.926Z,2750.00
2023-05-22T08:25:06.932Z,2761.00
2023-05-22T08:26:06.911Z,2769.00
2023-05-22T08:27:06.926Z,2788.00
2023-05-22T08:28:06.913Z,2801.00
2023-05-22T08:29:07.160Z,2814.00
2023-05-22T08:30:06.873Z,2839.00
2023-05-22T08:31:07.011Z,2840.00
2023-05-22T08:32:06.952Z,2844.00
2023-05-22T08:33:06.934Z,2854.00
2023-05-22T08:34:07.196Z,2861.00
2023-05-22T08:35:06.888Z,2865.00
2023-05-22T08:36:06.835Z,2898.00
2023-05-22T08:37:06.875Z,2936.00
2023-05-22T08:38:06.814Z,2960.00
2023-05-22T08:39:07.170Z,2997.00
2023-05-22T08:40:06.824Z,2986.00
2023-05-22T08:41:06.789Z,2984.00
2023-05-22T08:42:06.805Z,2985.00
2023-05-22T08:43:06.834Z,2984.00
2023-05-22T08:44:07.227Z,2983.00
2023-05-22T08:45:06.792Z,2975.00
2023-05-22T08:46:06.758Z,2968.00
2023-05-22T08:47:06.801Z,2960.00
2023-05-22T08:48:06.889Z,2949.00
2023-05-22T08:49:07.204Z,2945.00
2023-05-22T08:50:06.732Z,2941.00
2023-05-22T08:51:06.704Z,2936.00
2023-05-22T08:52:06.772Z,2930.00
2023-05-22T08:53:06.730Z,2919.00
2023-05-22T08:54:06.753Z,2909.00
2023-05-22T08:55:06.684Z,2902.00
2023-05-22T08:56:06.683Z,2896.00
2023-05-22T08:57:06.735Z,2892.00
2023-05-22T08:58:07.157Z,2885.00
2023-05-22T08:59:07.116Z,2877.00
2023-05-22T09:00:07.665Z,2872.00
2023-05-22T09:01:06.725Z,2864.00
2023-05-22T09:02:06.922Z,2858.00
2023-05-22T09:03:06.733Z,2848.00
2023-05-22T09:04:06.770Z,2853.00
2023-05-22T09:05:06.617Z,2851.00
2023-05-22T09:06:16.915Z,2852.00
2023-05-22T09:07:06.617Z,2846.00
2023-05-22T09:08:19.233Z,2841.00
2023-05-22T09:09:07.619Z,2834.00
2023-05-22T09:10:06.604Z,2836.00
2023-05-22T09:11:06.618Z,2827.00
2023-05-22T09:12:06.605Z,2819.00
2023-05-22T09:13:06.584Z,2815.00
2023-05-22T09:14:06.568Z,2812.00
2023-05-22T09:15:06.550Z,2809.00
2023-05-22T09:16:06.571Z,2806.00
2023-05-22T09:17:06.682Z,2803.00
2023-05-22T09:18:06.830Z,2799.00
2023-05-22T09:19:06.581Z,2791.00
2023-05-22T09:20:06.557Z,2779.00
2023-05-22T09:21:11.525Z,2777.00
2023-05-22T09:22:07.512Z,2780.00
2023-05-22T09:23:06.700Z,2783.00
2023-05-22T09:24:06.602Z,2778.00
2023-05-22T09:25:06.700Z,2777.00
2023-05-22T09:26:06.478Z,2776.00
2023-05-22T09:27:06.488Z,2769.00
2023-05-22T09:28:07.353Z,2763.00
2023-05-22T09:29:06.567Z,2755.00
2023-05-22T09:30:06.628Z,2749.00
2023-05-22T09:31:07.564Z,2744.00
2023-05-22T09:32:06.483Z,2736.00
2023-05-22T09:33:06.819Z,2734.00
2023-05-22T09:34:06.478Z,2733.00
2023-05-22T09:35:06.425Z,2716.00
2023-05-22T09:36:06.482Z,2711.00
2023-05-22T09:37:06.496Z,2710.00
2023-05-22T09:38:06.463Z,2715.00
2023-05-22T09:39:06.763Z,2714.00
2023-05-22T09:40:06.387Z,2713.00
2023-05-22T09:41:06.434Z,2711.00
2023-05-22T09:42:06.367Z,2710.00
2023-05-22T09:43:06.353Z,2711.00
2023-05-22T09:44:06.388Z,2704.00
2023-05-22T09:45:06.357Z,2699.00
2023-05-22T09:46:06.408Z,2697.00
2023-05-22T09:47:06.400Z,2694.00
2023-05-22T09:48:06.520Z,2689.00
2023-05-22T09:49:07.233Z,2681.00
2023-05-22T09:50:06.489Z,2673.00
2023-05-22T09:51:06.444Z,2676.00
2023-05-22T09:52:06.475Z,2675.00
2023-05-22T09:53:06.540Z,2671.00
2023-05-22T09:54:06.575Z,2664.00
2023-05-22T09:55:06.585Z,2658.00
2023-05-22T09:56:06.530Z,2653.00
2023-05-22T09:57:06.581Z,2644.00
2023-05-22T09:58:06.721Z,2642.00
2023-05-22T09:59:07.573Z,2629.00
2023-05-22T10:00:06.562Z,2624.00
2023-05-22T10:01:06.586Z,2613.00
2023-05-22T10:02:06.746Z,2611.00
2023-05-22T10:03:06.675Z,2609.00
2023-05-22T10:04:06.710Z,2604.00
2023-05-22T10:05:06.639Z,2599.00
2023-05-22T10:06:06.657Z,2589.00
2023-05-22T10:07:06.755Z,2576.00
2023-05-22T10:08:06.721Z,2575.00
2023-05-22T10:09:06.737Z,2563.00
2023-05-22T10:10:06.745Z,2555.00
2023-05-22T10:11:06.756Z,2548.00
2023-05-22T10:12:06.797Z,2543.00
2023-05-22T10:13:06.787Z,2541.00
2023-05-22T10:14:06.834Z,2539.00
2023-05-22T10:15:06.878Z,2536.00
2023-05-22T10:16:06.887Z,2533.00
2023-05-22T10:17:06.975Z,2535.00
2023-05-22T10:18:06.933Z,2535.00
2023-05-22T10:19:07.326Z,2530.00
2023-05-22T10:20:06.994Z,2525.00
2023-05-22T10:21:06.905Z,2522.00
2023-05-22T10:22:06.992Z,2521.00
2023-05-22T10:23:07.300Z,2515.00
2023-05-22T10:24:07.242Z,2510.00
2023-05-22T10:25:09.169Z,2509.00
2023-05-22T10:26:06.975Z,2502.00
2023-05-22T10:27:06.879Z,2498.00
2023-05-22T10:28:06.920Z,2497.00
2023-05-22T10:29:07.258Z,2495.00
2023-05-22T10:30:07.823Z,2481.00
2023-05-22T10:31:06.842Z,2471.00
2023-05-22T10:32:06.852Z,2467.00
2023-05-22T10:33:07.306Z,2467.00
2023-05-22T10:34:06.956Z,2469.00
2023-05-22T10:35:06.822Z,2474.00
2023-05-22T10:36:06.842Z,2469.00
2023-05-22T10:37:16.470Z,2472.00
2023-05-22T10:38:07.793Z,2470.00
2023-05-22T10:39:06.797Z,2470.00
2023-05-22T10:40:06.802Z,2460.00
2023-05-22T10:41:06.790Z,2447.00
2023-05-22T10:42:06.884Z,2446.00
2023-05-22T10:43:06.754Z,2437.00
2023-05-22T10:44:06.784Z,2425.00
2023-05-22T10:45:06.751Z,2431.00
2023-05-22T10:46:06.769Z,2428.00
2023-05-22T10:47:06.727Z,2425.00
2023-05-22T10:48:06.786Z,2421.00
2023-05-22T10:49:06.729Z,2419.00
2023-05-22T10:50:06.757Z,2419.00
2023-05-22T10:51:06.709Z,2417.00
2023-05-22T10:52:06.694Z,2416.00
2023-05-22T10:53:06.698Z,2410.00
2023-05-22T10:54:06.739Z,2401.00
2023-05-22T10:55:06.680Z,2402.00
2023-05-22T10:56:06.722Z,2401.00
2023-05-22T10:57:06.667Z,2393.00
2023-05-22T10:58:06.761Z,2390.00
2023-05-22T10:59:06.688Z,2391.00
2023-05-22T11:00:06.679Z,2386.00
2023-05-22T11:01:06.659Z,2386.00
2023-05-22T11:02:06.809Z,2388.00
2023-05-22T11:03:18.006Z,2389.00
2023-05-22T11:04:07.694Z,2387.00
2023-05-22T11:05:06.826Z,2387.00
2023-05-22T11:06:06.660Z,2386.00
2023-05-22T11:07:06.638Z,2384.00
2023-05-22T11:08:06.825Z,2384.00
2023-05-22T11:09:06.745Z,2384.00
2023-05-22T11:10:06.680Z,2372.00
2023-05-22T11:11:06.842Z,2363.00
2023-05-22T11:12:06.804Z,2362.00
2023-05-22T11:13:06.981Z,2364.00
2023-05-22T11:14:07.778Z,2337.00
2023-05-22T11:15:08.046Z,2312.00
2023-05-22T11:16:08.519Z,2311.00
2023-05-22T11:17:07.977Z,2313.00
2023-05-22T11:18:06.852Z,2318.00
2023-05-22T11:19:22.153Z,2301.00
2023-05-22T11:20:07.707Z,2126.00
2023-05-22T11:21:06.549Z,2089.00
2023-05-22T11:22:06.576Z,2060.00
2023-05-22T11:23:06.554Z,2052.00
2023-05-22T11:24:06.539Z,2055.00
2023-05-22T11:25:06.539Z,2108.00
2023-05-22T11:26:06.536Z,2181.00
2023-05-22T11:27:06.522Z,2229.00
2023-05-22T11:28:06.527Z,2215.00
2023-05-22T11:29:06.502Z,2204.00
2023-05-22T11:30:06.570Z,2217.00
2023-05-22T11:31:06.576Z,2211.00
2023-05-22T11:32:06.502Z,2213.00
2023-05-22T11:33:06.956Z,2204.00
2023-05-22T11:34:06.500Z,2179.00
2023-05-22T11:35:06.463Z,2148.00
2023-05-22T11:36:06.443Z,2111.00
2023-05-22T11:37:06.449Z,2097.00
2023-05-22T11:38:06.424Z,2109.00
2023-05-22T11:39:06.436Z,2106.00
2023-05-22T11:40:06.439Z,2184.00
2023-05-22T11:41:06.429Z,2193.00
2023-05-22T11:42:06.420Z,2185.00
2023-05-22T11:43:06.458Z,2103.00
2023-05-22T11:44:06.475Z,2114.00
2023-05-22T11:45:06.489Z,2129.00
2023-05-22T11:46:06.612Z,2167.00
2023-05-22T11:47:06.531Z,2144.00
2023-05-22T11:48:06.601Z,2076.00
2023-05-22T11:49:06.554Z,2049.00
2023-05-22T11:50:06.638Z,2041.00
2023-05-22T11:51:06.694Z,2056.00
2023-05-22T11:52:06.583Z,2085.00
2023-05-22T11:53:06.658Z,2123.00
2023-05-22T11:54:06.611Z,2120.00
2023-05-22T11:55:06.621Z,2114.00
2023-05-22T11:56:06.584Z,2105.00
2023-05-22T11:57:06.598Z,2042.00
2023-05-22T11:58:06.567Z,2054.00
2023-05-22T11:59:06.691Z,2041.00
2023-05-22T12:00:06.676Z,2042.00
2023-05-22T12:01:06.552Z,2050.00
2023-05-22T12:02:06.616Z,2059.00
2023-05-22T12:03:06.661Z,2060.00
2023-05-22T12:04:06.902Z,2075.00
2023-05-22T12:05:06.553Z,2087.00
2023-05-22T12:06:06.552Z,2090.00
2023-05-22T12:07:06.534Z,2089.00
2023-05-22T12:08:06.756Z,2097.00
2023-05-22T12:09:06.498Z,2108.00
2023-05-22T12:10:06.477Z,2113.00
2023-05-22T12:11:06.483Z,2128.00
2023-05-22T12:12:06.476Z,2134.00
2023-05-22T12:13:06.488Z,2133.00
2023-05-22T12:14:06.441Z,2132.00
2023-05-22T12:15:06.455Z,2135.00
2023-05-22T12:16:06.498Z,2149.00
2023-05-22T12:17:06.510Z,2158.00
2023-05-22T12:18:06.601Z,2171.00
2023-05-22T12:19:06.491Z,2188.00